• Join FlightAware (Why Join?)
  • Login
  • US Flag 
10:35PM EDT


 

Airport Tracker/Info


-or-


 

Live Flight TrackerFlight Track Log ✈ N302TC ✈ 11-Jul-2013 ✈ KPOU - KALB

Flight Track Log - Related Links

Times and Time Zones

All times are in EDT time to prevent confusion due to time zone crossing. See the N302TC flight status page for this flight to view local times or setup timezone preferences in your user account.

Time Position Orientation Groundspeed Altitude Reporting Facility
EDT Latitude Longitude Course Direction KTS MPH feet Rate Location/Type
01:58PM 41.6494 -73.8569 66° East 123 142 1,200  Level Boston Center
01:59PM 41.6708 -73.8214 51° Northeast 123 142 2,300 1,020 Climbing Boston Center
02:00PM 41.6922 -73.7828 53° Northeast 123 142 3,300 1,080 Climbing Boston Center
02:01PM 41.7133 -73.7444 54° Northeast 129 148 4,500 960 Climbing Boston Center
02:02PM 41.7431 -73.7061 44° Northeast 134 154 5,300 840 Climbing Boston Center
02:03PM 41.7470 -73.6589 66° East  Level FlightAware Approximate
02:03PM 41.7825 -73.7125 353° North 127 146 6,200  Level Boston Center
02:03PM 41.8139 -73.7131 359° North 158 182 6,900 660 Climbing Boston Center
02:04PM 41.8431 -73.7164 355° North 153 176 7,200 60 Climbing Boston Center
02:05PM 41.8722 -73.7169 359° North 159 183 7,000 -180 Descending Boston Center
02:06PM 41.9200 -73.7208 357° North 164 189 7,000  Level Boston Center
02:07PM 41.9700 -73.7303 352° North 173 199 7,100  Climbing Boston Center
02:08PM 42.0178 -73.7339 357° North 182 209 7,000  Descending Boston Center
02:08PM 42.0428 -73.7344 359° North 179 206 7,100 180 Climbing Boston Center
02:09PM 42.0700 -73.7350 359° North 182 209 7,200  Climbing Boston Center
02:09PM 42.0908 -73.7411 348° North 176 203 7,100 -120 Descending Boston Center
02:10PM 42.1158 -73.7414 360° North 177 204 7,100  Level Boston Center
02:10PM 42.1428 -73.7419 359° North 179 206 7,100  Level Boston Center
02:11PM 42.1908 -73.7486 354° North 180 207 7,100 -420 Level Boston Center
02:12PM 42.2386 -73.7525 357° North 186 214 6,300 -780 Descending Boston Center
02:13PM 42.2719 -73.7561 355° North 182 209 5,800 -780 Descending Boston Center
02:14PM 42.3281 -73.7628 355° North 182 209 5,000 -780 Descending Boston Center
02:15PM 42.3822 -73.7667 357° North 177 204 4,300 -600 Descending Boston Center
02:16PM 42.4386 -73.7650 North 173 199 3,700 -420 Descending Boston Center
02:17PM 42.4844 -73.7606 North 163 188 3,400 -360 Descending Boston Center
02:18PM 42.5158 -73.7556 North 160 184 3,100 -480 Descending Boston Center
02:19PM 42.5761 -73.7597 357° North 161 185 2,500 -480 Descending Boston Center
02:20PM 42.6264 -73.7522 North 160 184 2,100 -420 Descending Boston Center